createdAt,value
2023-03-26T03:36:04.249Z,19.8
2023-03-26T03:41:53.892Z,14.1
2023-03-26T03:47:45.965Z,15.9
2023-03-26T03:53:37.476Z,19.4
2023-03-26T03:59:28.260Z,15.7
2023-03-26T04:05:18.128Z,14
2023-03-26T04:11:10.551Z,17.8
2023-03-26T04:17:07.293Z,15.4
2023-03-26T04:23:00.273Z,14.6
2023-03-26T04:28:53.796Z,19.3
2023-03-26T04:34:48.330Z,20
2023-03-26T04:41:44.287Z,17
2023-03-26T04:47:34.737Z,15.8
2023-03-26T04:53:27.851Z,16.8
2023-03-26T04:59:20.718Z,18.1
2023-03-26T05:05:13.408Z,20.7
2023-03-26T05:11:08.023Z,20
2023-03-26T05:17:02.344Z,14.3
2023-03-26T05:23:00.121Z,17.5
2023-03-26T05:28:52.404Z,22.4
2023-03-26T05:34:44.821Z,14.3
2023-03-26T05:40:36.657Z,16.1
2023-03-26T05:46:29.050Z,17.9
2023-03-26T05:52:23.067Z,15.2
2023-03-26T05:58:14.963Z,18.7
2023-03-26T06:04:06.164Z,14.3
2023-03-26T06:10:00.677Z,17
2023-03-26T06:15:52.290Z,20.9
2023-03-26T06:21:44.644Z,19
2023-03-26T06:27:34.415Z,17.4
2023-03-26T06:33:28.861Z,15.3
2023-03-26T06:39:19.866Z,18.2
2023-03-26T06:45:10.721Z,17.6
2023-03-26T06:51:02.799Z,20.8
2023-03-26T06:56:52.345Z,19.9
2023-03-26T07:02:44.052Z,16.1
2023-03-26T07:08:37.271Z,19.4
2023-03-26T07:14:28.846Z,15
2023-03-26T07:20:20.859Z,16.5
2023-03-26T07:26:13.426Z,17.9
2023-03-26T07:32:05.906Z,16
2023-03-26T07:37:58.193Z,16.3
2023-03-26T07:43:50.910Z,20.6
2023-03-26T07:49:43.066Z,15.8
2023-03-26T07:55:35.224Z,17.9
2023-03-26T08:01:26.876Z,17.2
2023-03-26T08:07:18.921Z,15.5
2023-03-26T08:13:09.401Z,16.2
2023-03-26T08:19:00.004Z,17.2
2023-03-26T08:24:49.974Z,15.7
2023-03-26T08:30:39.685Z,14.6
2023-03-26T08:36:31.747Z,10.8
2023-03-26T08:42:21.427Z,11.5
2023-03-26T08:48:13.679Z,11.7
2023-03-26T08:54:05.033Z,9.5
2023-03-26T09:00:00.252Z,12.8
2023-03-26T09:05:53.007Z,12.3
2023-03-26T09:11:44.807Z,10.2
2023-03-26T09:17:38.086Z,11.1
2023-03-26T09:23:30.968Z,9.4
2023-03-26T09:29:23.148Z,9.6
2023-03-26T09:35:18.798Z,8.2
2023-03-26T09:41:10.342Z,7
2023-03-26T09:47:02.277Z,8.2
2023-03-26T09:52:53.972Z,9.3
2023-03-26T09:58:46.306Z,6.2
2023-03-26T10:04:39.229Z,5.7
2023-03-26T10:10:31.329Z,7.5
2023-03-26T10:16:24.122Z,6.4
2023-03-26T10:22:16.478Z,6.2
2023-03-26T10:28:08.452Z,6.4
2023-03-26T10:34:00.741Z,8.7
2023-03-26T10:39:53.725Z,5.7
2023-03-26T10:45:47.971Z,7.9
2023-03-26T10:51:43.287Z,4.9
2023-03-26T11:04:27.089Z,5.7
2023-03-26T11:10:14.875Z,6.3
2023-03-26T11:16:07.263Z,6
2023-03-26T11:22:02.707Z,7.4
2023-03-26T11:27:53.902Z,3.8
2023-03-26T11:33:54.931Z,4.8
2023-03-26T11:39:47.186Z,5.6
2023-03-26T11:45:41.028Z,5
2023-03-26T11:51:33.247Z,8.5
2023-03-26T11:57:24.591Z,6.3
2023-03-26T12:03:17.719Z,4.3
2023-03-26T12:09:10.957Z,1.4
2023-03-26T12:15:07.464Z,3
2023-03-26T12:21:00.823Z,1
2023-03-26T12:26:53.322Z,1.9
2023-03-26T12:32:57.208Z,1.5
2023-03-26T12:40:16.121Z,2.4
2023-03-26T12:48:08.302Z,1.1
2023-03-26T12:54:01.399Z,1
2023-03-26T12:59:56.252Z,1.2
2023-03-26T13:05:52.146Z,0.9
2023-03-26T13:11:45.536Z,0.9
2023-03-26T13:17:40.761Z,1
2023-03-26T13:23:33.314Z,1.2
2023-03-26T13:29:44.254Z,1.1
2023-03-26T13:41:44.037Z,0.9
2023-03-26T13:47:41.273Z,1.2
2023-03-26T13:53:49.420Z,1.7
2023-03-26T13:59:40.386Z,0.8
2023-03-26T14:05:33.096Z,0.9
2023-03-26T14:11:42.376Z,1.6
2023-03-26T14:17:40.828Z,0.8
2023-03-26T14:23:38.050Z,1.5
2023-03-26T14:35:37.130Z,1
2023-03-26T14:41:34.758Z,1.9
2023-03-26T14:47:59.525Z,1.3
2023-03-26T14:54:04.960Z,1.5
2023-03-26T14:59:58.702Z,1.9
2023-03-26T15:05:53.129Z,4.4
2023-03-26T15:12:18.344Z,3.6
2023-03-26T15:18:27.389Z,1.4
2023-03-26T15:24:21.458Z,1.8
2023-03-26T15:30:13.529Z,2.9
2023-03-26T15:36:05.211Z,3.7
2023-03-26T15:41:57.382Z,3.6
2023-03-26T15:47:50.612Z,5.4
2023-03-26T15:53:42.244Z,4.6
2023-03-26T15:59:34.517Z,4.6
2023-03-26T16:05:25.833Z,6.4
2023-03-26T16:11:20.544Z,7.4
2023-03-26T16:17:14.277Z,5.7
2023-03-26T16:23:07.152Z,19
2023-03-26T16:29:00.050Z,39.7
2023-03-26T16:34:50.762Z,19.2
2023-03-26T16:40:43.580Z,6.6
2023-03-26T16:46:36.782Z,3.8
2023-03-26T16:52:31.882Z,4.5
2023-03-26T17:04:45.717Z,3.1
2023-03-26T17:10:39.387Z,6.5
2023-03-26T17:16:31.609Z,4.9
2023-03-26T17:22:24.155Z,3.5
2023-03-26T17:28:16.408Z,3.3
2023-03-26T17:34:23.516Z,3.3
2023-03-26T17:40:16.958Z,4.5
2023-03-26T17:46:21.090Z,4.7
2023-03-26T17:52:13.513Z,4.2
2023-03-26T18:03:56.651Z,3.8
2023-03-26T18:09:53.681Z,4.5
2023-03-26T18:15:54.322Z,3.8
2023-03-26T18:21:46.930Z,3.4
2023-03-26T18:27:44.246Z,3.4
2023-03-26T18:33:36.479Z,4.8
2023-03-26T18:39:29.284Z,3.7
2023-03-26T18:45:21.671Z,48.4
2023-03-26T18:51:15.014Z,6.3
2023-03-26T18:57:21.035Z,8.4
2023-03-26T19:03:12.506Z,9.5
2023-03-26T19:09:04.903Z,9.5
2023-03-26T19:15:05.714Z,9.4
2023-03-26T19:20:59.134Z,16.8
2023-03-26T19:27:05.608Z,18.1
2023-03-26T19:33:17.199Z,20
2023-03-26T19:39:09.104Z,18
2023-03-26T19:45:03.018Z,20.3
2023-03-26T19:51:02.105Z,24.1
2023-03-26T19:57:01.497Z,23.6
2023-03-26T20:02:53.125Z,27.8
2023-03-26T20:08:46.370Z,31.4
2023-03-26T20:14:37.726Z,29.9
2023-03-26T20:20:29.192Z,31.1
2023-03-26T20:26:20.642Z,29.3
2023-03-26T20:32:12.313Z,27.8
2023-03-26T20:38:05.966Z,29.7
2023-03-26T20:43:59.679Z,41.3
2023-03-26T20:49:55.114Z,26.5
2023-03-26T20:55:53.639Z,22.6
2023-03-26T21:01:59.621Z,22.8
2023-03-26T21:07:53.393Z,24.2
2023-03-26T21:13:45.265Z,22.4
2023-03-26T21:19:37.175Z,30.1
2023-03-26T21:25:29.855Z,27.5
2023-03-26T21:31:22.213Z,22.6
2023-03-26T21:37:15.429Z,23.1
2023-03-26T21:43:05.888Z,21.6
2023-03-26T21:50:07.308Z,23
2023-03-26T21:56:01.744Z,24.9
2023-03-26T22:01:54.176Z,21.8
2023-03-26T22:07:49.662Z,22.6
2023-03-26T22:13:42.404Z,24.4
2023-03-26T22:19:38.320Z,23.9
2023-03-26T22:25:30.086Z,24
2023-03-26T22:31:22.193Z,22.1
2023-03-26T22:37:15.867Z,23.3
2023-03-26T22:43:09.750Z,20.5
2023-03-26T22:49:02.492Z,18
2023-03-26T22:55:12.930Z,18.3
2023-03-26T23:01:19.800Z,23
